Time;durP1;ratioP1;P1;durP2;ratioP2;P2;SDS_P1;SDS_P2;PMS_P1;PMS_P2;Temp;Humidity;BMP_temperature;BMP_pressure;BME280_temperature;BME280_humidity;BME280_pressure;Samples;Min_cycle;Max_cycle;Signal;HPM_P1;HPM_P2
2022/10/16 00:00:16;;;;;;;;;;;19.70;99.90;;;;;;5094931;28;19916;-9
2022/10/16 00:02:41;;;;;;;;;;;19.70;99.90;;;;;;5094772;28;19955;-10
2022/10/16 00:05:07;;;;;;;;;;;19.70;99.90;;;;;;5093728;28;19918;-9
2022/10/16 00:07:33;;;;;;;;;;;19.70;99.90;;;;;;5094138;28;19985;-10
2022/10/16 00:09:58;;;;;;;;;;;19.70;99.90;;;;;;5096466;28;19909;-11
2022/10/16 00:12:24;;;;;;;;;;;19.70;99.90;;;;;;5095713;28;20252;-10
2022/10/16 00:14:49;;;;;;;;;;;19.70;99.90;;;;;;5093571;28;20246;-11
2022/10/16 00:17:15;;;;;;;;;;;19.60;99.90;;;;;;5094684;28;19958;-10
2022/10/16 00:19:40;;;;;;;;;;;19.70;99.90;;;;;;5094102;28;19951;-10
2022/10/16 00:22:06;;;;;;;;;;;19.70;99.90;;;;;;5095248;28;20002;-11
2022/10/16 00:24:32;;;;;;;;;;;19.60;99.90;;;;;;5094214;28;20293;-10
2022/10/16 00:26:57;;;;;;;;;;;19.60;99.90;;;;;;5093829;28;19939;-10
2022/10/16 00:29:26;;;;;;;;;;;19.60;99.90;;;;;;5093734;28;19919;-10
2022/10/16 00:31:51;;;;;;;;;;;19.60;99.90;;;;;;5093869;28;19919;-9
2022/10/16 00:34:17;;;;;;;;;;;19.60;99.90;;;;;;5091488;28;19916;-10
2022/10/16 00:36:42;;;;;;;;;;;19.60;99.90;;;;;;5091651;28;20015;-11
2022/10/16 00:39:08;;;;;;;;;;;19.60;99.90;;;;;;5093016;28;19912;-9
2022/10/16 00:41:34;;;;;;;;;;;19.60;99.90;;;;;;5092806;28;19912;-11
2022/10/16 00:44:00;;;;;;;;;;;19.60;99.90;;;;;;5093973;28;20207;-12
2022/10/16 00:46:28;;;;;;;;;;;19.60;99.90;;;;;;5093000;28;19912;-11
2022/10/16 00:48:57;;;;;;;;;;;19.60;99.90;;;;;;5094899;28;19923;-10
2022/10/16 00:51:25;;;;;;;;;;;19.60;99.90;;;;;;5093092;28;20000;-9
2022/10/16 00:53:50;;;;;;;;;;;19.60;99.90;;;;;;5092333;28;19939;-9
2022/10/16 00:56:16;;;;;;;;;;;19.60;99.90;;;;;;5091489;28;20155;-10
2022/10/16 00:58:42;;;;;;;;;;;19.60;99.90;;;;;;5089656;28;19919;-10
2022/10/16 01:01:07;;;;;;;;;;;19.60;99.90;;;;;;5090870;28;19908;-10
2022/10/16 01:03:35;;;;;;;;;;;19.60;99.90;;;;;;5091354;28;20185;-11
2022/10/16 01:06:14;;;;;;;;;;;19.60;99.90;;;;;;5091490;28;19916;-10
2022/10/16 01:08:43;;;;;;;;;;;19.60;99.90;;;;;;5090153;28;19908;-10
2022/10/16 01:11:14;;;;;;;;;;;19.60;99.90;;;;;;5091612;28;20098;-9
2022/10/16 01:13:42;;;;;;;;;;;19.60;99.90;;;;;;5091825;28;20362;-11
2022/10/16 01:16:34;;;;;;;;;;;19.60;99.90;;;;;;5092826;28;19908;-9
2022/10/16 01:19:11;;;;;;;;;;;19.60;99.90;;;;;;5090601;28;19912;-10
2022/10/16 01:21:43;;;;;;;;;;;19.60;99.90;;;;;;5091461;28;20132;-11
2022/10/16 01:24:38;;;;;;;;;;;19.60;99.90;;;;;;5091537;28;19908;-9
2022/10/16 01:27:12;;;;;;;;;;;19.60;99.90;;;;;;5082246;28;19939;-11
2022/10/16 01:29:44;;;;;;;;;;;19.60;99.90;;;;;;5093755;28;19924;-10
2022/10/16 01:32:31;;;;;;;;;;;19.50;99.90;;;;;;5091983;28;19923;-9
2022/10/16 01:35:06;;;;;;;;;;;19.50;99.90;;;;;;5093447;28;19947;-10
2022/10/16 01:37:35;;;;;;;;;;;19.50;99.90;;;;;;5096399;28;19908;-9
2022/10/16 01:40:02;;;;;;;;;;;19.50;99.90;;;;;;5094901;28;19981;-11
2022/10/16 01:42:35;;;;;;;;;;;19.50;99.90;;;;;;5092168;28;19908;-10
2022/10/16 01:45:01;;;;;;;;;;;19.50;99.90;;;;;;5094730;28;19922;-10
2022/10/16 01:47:27;;;;;;;;;;;19.50;99.90;;;;;;5094401;28;20284;-11
2022/10/16 01:49:53;;;;;;;;;;;19.50;99.90;;;;;;5094924;28;19912;-11
2022/10/16 01:52:21;;;;;;;;;;;19.50;99.90;;;;;;5093730;28;19948;-11
2022/10/16 01:54:48;;;;;;;;;;;19.50;99.90;;;;;;5091333;28;19915;-11
2022/10/16 01:57:14;;;;;;;;;;;19.50;99.90;;;;;;5091836;28;20177;-9
2022/10/16 01:59:44;;;;;;;;;;;19.50;99.90;;;;;;5094509;28;19916;-10
2022/10/16 02:02:11;;;;;;;;;;;19.50;99.90;;;;;;5095385;28;20011;-11
2022/10/16 02:04:45;;;;;;;;;;;19.50;99.90;;;;;;5097562;28;20261;-10
2022/10/16 02:07:11;;;;;;;;;;;19.50;99.90;;;;;;5097302;28;19958;-11
2022/10/16 02:09:36;;;;;;;;;;;19.50;99.90;;;;;;5097920;28;19916;-10
2022/10/16 02:12:09;;;;;;;;;;;19.50;99.90;;;;;;5094232;28;19969;-11
2022/10/16 02:14:37;;;;;;;;;;;19.50;99.90;;;;;;5093437;28;19908;-10
2022/10/16 02:17:09;;;;;;;;;;;19.50;99.90;;;;;;5094601;28;19915;-10
2022/10/16 02:19:35;;;;;;;;;;;19.50;99.90;;;;;;5093223;28;19920;-11
2022/10/16 02:22:03;;;;;;;;;;;19.40;99.90;;;;;;5092810;28;19919;-10
2022/10/16 02:24:41;;;;;;;;;;;19.40;99.90;;;;;;5093971;28;19908;-10
2022/10/16 02:27:10;;;;;;;;;;;19.40;99.90;;;;;;5096111;28;20263;-9
2022/10/16 02:29:38;;;;;;;;;;;19.40;99.90;;;;;;5096664;28;19919;-11
2022/10/16 02:32:05;;;;;;;;;;;19.40;99.90;;;;;;5097368;28;19954;-11
2022/10/16 02:34:32;;;;;;;;;;;19.40;99.90;;;;;;5098056;28;19908;-11
2022/10/16 02:36:58;;;;;;;;;;;19.40;99.90;;;;;;5094504;28;19919;-9
2022/10/16 02:39:23;;;;;;;;;;;19.40;99.90;;;;;;5096894;28;20181;-9
2022/10/16 02:41:49;;;;;;;;;;;19.40;99.90;;;;;;5094022;28;20266;-10
2022/10/16 02:44:15;;;;;;;;;;;19.40;99.90;;;;;;5097870;28;20269;-10
2022/10/16 02:46:40;;;;;;;;;;;19.40;99.90;;;;;;5096658;28;20291;-10
2022/10/16 02:49:06;;;;;;;;;;;19.40;99.90;;;;;;5097285;28;20182;-10
2022/10/16 02:51:31;;;;;;;;;;;19.40;99.90;;;;;;5096223;28;19981;-9
2022/10/16 02:53:57;;;;;;;;;;;19.40;99.90;;;;;;5095256;28;19908;-10
2022/10/16 02:56:23;;;;;;;;;;;19.40;99.90;;;;;;5095219;28;20090;-10
2022/10/16 02:58:49;;;;;;;;;;;19.40;99.90;;;;;;5093849;28;20007;-10
2022/10/16 03:01:16;;;;;;;;;;;19.30;99.90;;;;;;5092229;28;19909;-10
2022/10/16 03:03:42;;;;;;;;;;;19.30;99.90;;;;;;5095207;28;20002;-10
2022/10/16 03:06:07;;;;;;;;;;;19.30;99.90;;;;;;5095061;28;20014;-10
2022/10/16 03:08:33;;;;;;;;;;;19.30;99.90;;;;;;5095202;28;19915;-10
2022/10/16 03:10:59;;;;;;;;;;;19.30;99.90;;;;;;5096765;28;19947;-11
2022/10/16 03:13:24;;;;;;;;;;;19.40;99.90;;;;;;5096337;28;20295;-10
2022/10/16 03:15:50;;;;;;;;;;;19.30;99.90;;;;;;5096634;28;19908;-10
2022/10/16 03:18:16;;;;;;;;;;;19.30;99.90;;;;;;5095762;28;19912;-11
2022/10/16 03:20:42;;;;;;;;;;;19.30;99.90;;;;;;5097120;28;20231;-11
2022/10/16 03:23:08;;;;;;;;;;;19.30;99.90;;;;;;5098381;28;19973;-9
2022/10/16 03:25:34;;;;;;;;;;;19.30;99.90;;;;;;5094976;28;19936;-9
2022/10/16 03:27:59;;;;;;;;;;;19.30;99.90;;;;;;5093210;28;19918;-10
2022/10/16 03:30:25;;;;;;;;;;;19.30;99.90;;;;;;5094308;28;19908;-11
2022/10/16 03:32:53;;;;;;;;;;;19.30;99.90;;;;;;5095393;28;19920;-11
2022/10/16 03:35:23;;;;;;;;;;;19.30;99.90;;;;;;5095444;28;19920;-11
2022/10/16 03:37:48;;;;;;;;;;;19.30;99.90;;;;;;5095880;28;20288;-9
2022/10/16 03:40:16;;;;;;;;;;;19.30;99.90;;;;;;5094332;28;19912;-11
2022/10/16 03:42:44;;;;;;;;;;;19.30;99.90;;;;;;5096607;28;19908;-11
2022/10/16 03:45:11;;;;;;;;;;;19.30;99.90;;;;;;5096057;28;20264;-9
2022/10/16 03:47:36;;;;;;;;;;;19.30;99.90;;;;;;5094860;28;19908;-10
2022/10/16 03:50:02;;;;;;;;;;;19.30;99.90;;;;;;5096073;28;20288;-10
2022/10/16 03:52:28;;;;;;;;;;;19.30;99.90;;;;;;5095778;28;19908;-9
2022/10/16 03:54:53;;;;;;;;;;;19.30;99.90;;;;;;5095715;28;19919;-11
2022/10/16 03:57:20;;;;;;;;;;;19.30;99.90;;;;;;5096815;28;20304;-12
2022/10/16 03:59:45;;;;;;;;;;;19.30;99.90;;;;;;5096660;28;19973;-10
2022/10/16 04:02:11;;;;;;;;;;;19.30;99.90;;;;;;5095619;28;19908;-10
2022/10/16 04:04:36;;;;;;;;;;;19.30;99.90;;;;;;5096204;28;19908;-10
2022/10/16 04:07:02;;;;;;;;;;;19.20;99.90;;;;;;5096865;28;19944;-10
2022/10/16 04:09:28;;;;;;;;;;;19.20;99.90;;;;;;5096638;28;20288;-12
2022/10/16 04:11:53;;;;;;;;;;;19.20;99.90;;;;;;5094626;28;19919;-10
2022/10/16 04:14:19;;;;;;;;;;;19.20;99.90;;;;;;5093024;28;20243;-9
2022/10/16 04:16:44;;;;;;;;;;;19.20;99.90;;;;;;5095280;28;19923;-10
2022/10/16 04:19:10;;;;;;;;;;;19.20;99.90;;;;;;5094412;28;19948;-10
2022/10/16 04:21:36;;;;;;;;;;;19.30;99.90;;;;;;5093963;28;19908;-10
2022/10/16 04:24:01;;;;;;;;;;;19.20;99.90;;;;;;5094711;28;19908;-10
2022/10/16 04:26:27;;;;;;;;;;;19.20;99.90;;;;;;5094277;28;20281;-10
2022/10/16 04:28:56;;;;;;;;;;;19.20;99.90;;;;;;5096672;28;19912;-9
2022/10/16 04:31:22;;;;;;;;;;;19.20;99.90;;;;;;5094707;28;19988;-9
2022/10/16 04:33:47;;;;;;;;;;;19.20;99.90;;;;;;5091861;28;20010;-10
2022/10/16 04:36:13;;;;;;;;;;;19.20;99.90;;;;;;5092080;28;20046;-11
2022/10/16 04:38:39;;;;;;;;;;;19.20;99.90;;;;;;5091187;28;19916;-10
2022/10/16 04:41:06;;;;;;;;;;;19.20;99.90;;;;;;5073819;28;20391;-11
2022/10/16 04:43:32;;;;;;;;;;;19.20;99.90;;;;;;5091607;28;19908;-11
2022/10/16 04:45:58;;;;;;;;;;;19.20;99.90;;;;;;5094378;28;19916;-9
2022/10/16 04:48:24;;;;;;;;;;;19.20;99.90;;;;;;5093654;28;19961;-11
2022/10/16 04:50:49;;;;;;;;;;;19.20;99.90;;;;;;5093927;28;19908;-10
2022/10/16 04:53:15;;;;;;;;;;;19.20;99.90;;;;;;5093019;28;20292;-10
2022/10/16 04:55:41;;;;;;;;;;;19.10;99.90;;;;;;5093623;28;19973;-10
2022/10/16 04:58:07;;;;;;;;;;;19.10;99.90;;;;;;5091356;28;19977;-10
2022/10/16 05:00:32;;;;;;;;;;;19.10;99.90;;;;;;5091917;28;20098;-10
2022/10/16 05:03:00;;;;;;;;;;;19.10;99.90;;;;;;5092738;28;19919;-11
2022/10/16 05:05:26;;;;;;;;;;;19.10;99.90;;;;;;5092861;28;20065;-10
2022/10/16 05:07:52;;;;;;;;;;;19.10;99.90;;;;;;5090828;28;19908;-10
2022/10/16 05:10:18;;;;;;;;;;;19.10;99.90;;;;;;5092897;28;19931;-9
2022/10/16 05:12:43;;;;;;;;;;;19.10;99.90;;;;;;5093879;28;20194;-11
2022/10/16 05:15:10;;;;;;;;;;;19.10;99.90;;;;;;5094952;28;19961;-9
2022/10/16 05:17:35;;;;;;;;;;;19.10;99.90;;;;;;5093381;28;20023;-21
2022/10/16 05:20:01;;;;;;;;;;;19.10;99.90;;;;;;5092894;28;20046;-9
2022/10/16 05:22:26;;;;;;;;;;;19.10;99.90;;;;;;5093318;28;19908;-9
2022/10/16 05:24:52;;;;;;;;;;;19.10;99.90;;;;;;5092714;28;19955;-10
2022/10/16 05:27:20;;;;;;;;;;;19.10;99.90;;;;;;5093230;28;20266;-11
2022/10/16 05:29:46;;;;;;;;;;;19.10;99.90;;;;;;5091395;28;19972;-11
2022/10/16 05:32:13;;;;;;;;;;;19.10;99.90;;;;;;5094385;28;20289;-11
2022/10/16 05:34:38;;;;;;;;;;;19.10;99.90;;;;;;5095280;28;20158;-11
2022/10/16 05:37:04;;;;;;;;;;;19.10;99.90;;;;;;5095847;28;20242;-9
2022/10/16 05:39:30;;;;;;;;;;;19.10;99.90;;;;;;5098016;28;20277;-11
2022/10/16 05:41:56;;;;;;;;;;;19.10;99.90;;;;;;5096759;28;20045;-10
2022/10/16 05:44:21;;;;;;;;;;;19.10;99.90;;;;;;5098488;28;19916;-9
2022/10/16 05:46:47;;;;;;;;;;;19.10;99.90;;;;;;5096561;28;19994;-10
2022/10/16 05:49:12;;;;;;;;;;;19.10;99.90;;;;;;5097640;28;19916;-11
2022/10/16 05:51:38;;;;;;;;;;;19.10;99.90;;;;;;5098521;28;19912;-10
2022/10/16 05:54:04;;;;;;;;;;;19.10;99.90;;;;;;5096940;28;20284;-10
2022/10/16 05:56:29;;;;;;;;;;;19.10;99.90;;;;;;5094436;28;19908;-10
2022/10/16 05:58:55;;;;;;;;;;;19.10;99.90;;;;;;5096022;28;19912;-11
2022/10/16 06:01:23;;;;;;;;;;;19.00;99.90;;;;;;5095783;28;19908;-10
2022/10/16 06:03:53;;;;;;;;;;;19.00;99.90;;;;;;5095797;28;20056;-9
2022/10/16 06:06:22;;;;;;;;;;;19.00;99.90;;;;;;5095540;28;20247;-11
2022/10/16 06:08:48;;;;;;;;;;;19.00;99.90;;;;;;5096387;28;20073;-9
2022/10/16 06:11:19;;;;;;;;;;;19.00;99.90;;;;;;5096830;28;19912;-11
2022/10/16 06:13:45;;;;;;;;;;;19.00;99.90;;;;;;5095966;28;19908;-10
2022/10/16 06:16:11;;;;;;;;;;;19.10;99.90;;;;;;5095924;28;19908;-10
2022/10/16 06:18:37;;;;;;;;;;;19.10;99.90;;;;;;5095601;28;19920;-12
2022/10/16 06:21:13;;;;;;;;;;;19.10;99.90;;;;;;5096010;28;19998;-10
2022/10/16 06:23:39;;;;;;;;;;;19.10;99.90;;;;;;5095636;28;19916;-10
2022/10/16 06:26:05;;;;;;;;;;;19.10;99.90;;;;;;5094145;28;19919;-10
2022/10/16 06:28:31;;;;;;;;;;;19.10;99.90;;;;;;5095300;28;19915;-11
2022/10/16 06:31:00;;;;;;;;;;;19.10;99.90;;;;;;5095681;28;19936;-9
2022/10/16 06:33:25;;;;;;;;;;;19.10;99.90;;;;;;5096318;28;19920;-10
2022/10/16 06:35:51;;;;;;;;;;;19.20;99.90;;;;;;5098396;28;19939;-10
2022/10/16 06:38:16;;;;;;;;;;;19.20;99.90;;;;;;5097377;28;20313;-10
2022/10/16 06:40:42;;;;;;;;;;;19.30;99.90;;;;;;5095039;28;20406;-11
2022/10/16 06:43:08;;;;;;;;;;;19.50;99.90;;;;;;5095517;28;20103;-11
2022/10/16 06:45:33;;;;;;;;;;;19.60;99.90;;;;;;5094740;28;20006;-10
2022/10/16 06:47:59;;;;;;;;;;;20.30;99.90;;;;;;5094019;28;19920;-10
2022/10/16 06:50:25;;;;;;;;;;;20.80;99.90;;;;;;5096090;28;20193;-10
2022/10/16 06:52:50;;;;;;;;;;;21.20;99.90;;;;;;5094359;28;19908;-11
2022/10/16 06:55:16;;;;;;;;;;;21.10;99.90;;;;;;5094880;28;19911;-10
2022/10/16 06:57:42;;;;;;;;;;;20.90;99.90;;;;;;5095172;28;19908;-10
2022/10/16 07:00:08;;;;;;;;;;;20.70;99.90;;;;;;5094719;28;20238;-10
2022/10/16 07:02:34;;;;;;;;;;;20.40;99.90;;;;;;5092942;28;19907;-10
2022/10/16 07:04:59;;;;;;;;;;;20.30;99.90;;;;;;5096193;28;19912;-9
2022/10/16 07:07:26;;;;;;;;;;;20.20;99.90;;;;;;5096047;28;20308;-10
2022/10/16 07:09:52;;;;;;;;;;;20.30;99.90;;;;;;5095534;28;20147;-13
2022/10/16 07:12:18;;;;;;;;;;;20.80;99.90;;;;;;5094642;28;19919;-11
2022/10/16 07:14:43;;;;;;;;;;;21.20;99.90;;;;;;5093938;28;19899;-10
2022/10/16 07:17:08;;;;;;;;;;;21.30;99.70;;;;;;5092873;28;19908;-11
2022/10/16 07:19:34;;;;;;;;;;;21.40;99.40;;;;;;5093287;28;19963;-9
2022/10/16 07:22:00;;;;;;;;;;;21.50;99.00;;;;;;5092528;28;19973;-11
2022/10/16 07:24:26;;;;;;;;;;;21.70;98.70;;;;;;5093358;28;19977;-11
2022/10/16 07:26:51;;;;;;;;;;;22.20;97.80;;;;;;5090757;28;19934;-11
2022/10/16 07:29:18;;;;;;;;;;;22.40;96.60;;;;;;5092594;28;19942;-10
2022/10/16 07:31:44;;;;;;;;;;;22.30;96.60;;;;;;5092749;28;20305;-11
2022/10/16 07:34:11;;;;;;;;;;;22.20;96.60;;;;;;5094432;28;20387;-10
2022/10/16 07:36:36;;;;;;;;;;;21.90;97.20;;;;;;5094562;28;19908;-12
2022/10/16 07:39:02;;;;;;;;;;;21.60;97.80;;;;;;5095252;28;19923;-9
2022/10/16 07:41:28;;;;;;;;;;;21.40;98.10;;;;;;5090457;28;19908;-11
2022/10/16 07:43:54;;;;;;;;;;;21.40;98.40;;;;;;5092639;28;19995;-9
2022/10/16 07:46:21;;;;;;;;;;;21.30;98.50;;;;;;5091313;28;20128;-10
2022/10/16 07:48:47;;;;;;;;;;;21.40;98.50;;;;;;5091276;28;19940;-9
2022/10/16 07:51:18;;;;;;;;;;;21.40;98.80;;;;;;5093359;28;20196;-10
2022/10/16 07:53:43;;;;;;;;;;;22.30;97.50;;;;;;5090143;28;20277;-11
2022/10/16 07:56:09;;;;;;;;;;;23.60;95.10;;;;;;5090095;28;19973;-9
2022/10/16 07:58:38;;;;;;;;;;;24.50;92.00;;;;;;5088968;28;19920;-11
2022/10/16 08:01:05;;;;;;;;;;;24.10;92.20;;;;;;5088947;28;19939;-12
2022/10/16 08:03:30;;;;;;;;;;;25.20;90.00;;;;;;5092104;28;19915;-10
2022/10/16 08:05:57;;;;;;;;;;;26.00;83.90;;;;;;5090816;28;19908;-10
2022/10/16 08:08:22;;;;;;;;;;;26.60;79.10;;;;;;5090045;28;20153;-10
2022/10/16 08:10:48;;;;;;;;;;;27.10;75.60;;;;;;5091500;28;20271;-11
2022/10/16 08:13:14;;;;;;;;;;;27.50;72.10;;;;;;5091011;28;19915;-12
2022/10/16 08:15:41;;;;;;;;;;;27.90;69.50;;;;;;5092123;28;19908;-12
2022/10/16 08:18:06;;;;;;;;;;;28.20;68.00;;;;;;5091421;28;19920;-10
2022/10/16 08:20:33;;;;;;;;;;;28.50;66.00;;;;;;5091471;28;19951;-11
2022/10/16 08:23:01;;;;;;;;;;;28.80;64.30;;;;;;5091493;28;20138;-11
2022/10/16 08:25:27;;;;;;;;;;;29.00;63.00;;;;;;5091043;28;19947;-12
2022/10/16 08:27:53;;;;;;;;;;;29.30;61.80;;;;;;5090871;28;20328;-11
2022/10/16 08:30:19;;;;;;;;;;;29.50;60.60;;;;;;5092989;28;19947;-12
2022/10/16 08:32:45;;;;;;;;;;;29.60;59.80;;;;;;5092368;28;19916;-11
2022/10/16 08:35:12;;;;;;;;;;;29.70;59.30;;;;;;5090676;28;19962;-10
2022/10/16 08:37:38;;;;;;;;;;;29.90;58.70;;;;;;5091150;28;20006;-11
2022/10/16 08:40:05;;;;;;;;;;;29.90;58.50;;;;;;5091128;28;19922;-13
2022/10/16 08:42:39;;;;;;;;;;;30.10;58.10;;;;;;5090250;28;19922;-10
2022/10/16 08:45:26;;;;;;;;;;;30.30;57.60;;;;;;5089063;28;19909;-12
2022/10/16 08:47:52;;;;;;;;;;;30.40;57.20;;;;;;5087934;28;19908;-11
2022/10/16 08:50:21;;;;;;;;;;;30.60;56.70;;;;;;5089980;28;19923;-11
2022/10/16 08:52:47;;;;;;;;;;;30.70;56.40;;;;;;5089452;28;20003;-11
2022/10/16 08:55:19;;;;;;;;;;;30.80;55.90;;;;;;5089879;28;20014;-11
2022/10/16 08:57:45;;;;;;;;;;;30.90;55.70;;;;;;5089407;28;20270;-12
2022/10/16 09:00:14;;;;;;;;;;;31.00;55.40;;;;;;5090386;28;20455;-12
2022/10/16 09:03:09;;;;;;;;;;;31.10;55.20;;;;;;5090711;28;19908;-12
2022/10/16 09:05:44;;;;;;;;;;;31.10;55.00;;;;;;5082265;28;19908;-12
2022/10/16 09:08:10;;;;;;;;;;;31.20;54.70;;;;;;5094654;28;19908;-10
2022/10/16 09:10:46;;;;;;;;;;;31.20;54.50;;;;;;5095925;28;19909;-11
2022/10/16 09:13:19;;;;;;;;;;;31.20;54.40;;;;;;5093999;28;19908;-11
2022/10/16 09:15:45;;;;;;;;;;;31.20;54.20;;;;;;5095744;28;19915;-10
2022/10/16 09:18:31;;;;;;;;;;;31.30;54.10;;;;;;5094142;28;19919;-10
2022/10/16 09:20:59;;;;;;;;;;;31.30;54.10;;;;;;5072461;28;20185;-10
2022/10/16 09:23:33;;;;;;;;;;;31.20;54.00;;;;;;5093344;28;19922;-12
2022/10/16 09:25:59;;;;;;;;;;;31.10;53.90;;;;;;5094086;28;20363;-12
2022/10/16 09:28:24;;;;;;;;;;;31.00;54.00;;;;;;5093623;28;19973;-10
2022/10/16 09:30:50;;;;;;;;;;;30.70;54.10;;;;;;5092791;28;20257;-11
2022/10/16 09:33:17;;;;;;;;;;;30.10;54.50;;;;;;5093180;28;19981;-11
2022/10/16 09:35:44;;;;;;;;;;;29.40;55.00;;;;;;5094350;28;19908;-10
2022/10/16 09:38:21;;;;;;;;;;;28.60;55.80;;;;;;5093678;28;19920;-11
2022/10/16 09:40:46;;;;;;;;;;;28.00;57.10;;;;;;5092169;28;19908;-10
2022/10/16 09:43:18;;;;;;;;;;;27.20;58.90;;;;;;5095128;28;19950;-11
2022/10/16 09:45:53;;;;;;;;;;;26.60;61.30;;;;;;5094132;28;19944;-11
2022/10/16 09:48:19;;;;;;;;;;;26.10;64.60;;;;;;5091208;28;20151;-11
2022/10/16 09:50:55;;;;;;;;;;;25.70;67.70;;;;;;5090804;28;19919;-9
2022/10/16 09:53:22;;;;;;;;;;;25.40;70.40;;;;;;5092540;28;19908;-11
2022/10/16 09:55:49;;;;;;;;;;;25.10;72.90;;;;;;5093078;28;19908;-12
2022/10/16 09:58:14;;;;;;;;;;;24.90;74.60;;;;;;5092364;28;20151;-11
2022/10/16 10:00:41;;;;;;;;;;;24.80;76.60;;;;;;5093415;28;19923;-11
2022/10/16 10:03:10;;;;;;;;;;;24.60;78.00;;;;;;5094572;28;20363;-11
2022/10/16 10:05:39;;;;;;;;;;;24.50;79.50;;;;;;5094601;28;19908;-10
2022/10/16 10:08:05;;;;;;;;;;;24.30;80.70;;;;;;5091734;28;19935;-10
2022/10/16 10:10:41;;;;;;;;;;;24.30;81.90;;;;;;5092379;28;19908;-11
2022/10/16 10:13:20;;;;;;;;;;;24.10;83.00;;;;;;5093746;28;19915;-9
2022/10/16 10:15:46;;;;;;;;;;;24.00;83.90;;;;;;5094340;28;19931;-10
2022/10/16 10:18:16;;;;;;;;;;;23.90;85.00;;;;;;5092696;28;20166;-10
2022/10/16 10:20:42;;;;;;;;;;;23.90;86.00;;;;;;5091477;28;19936;-10
2022/10/16 10:23:34;;;;;;;;;;;23.80;86.80;;;;;;5093257;28;20296;-11
2022/10/16 10:26:07;;;;;;;;;;;23.70;87.50;;;;;;5088410;28;20387;-11
2022/10/16 10:28:51;;;;;;;;;;;23.60;88.40;;;;;;5090965;28;19915;-11
2022/10/16 10:31:17;;;;;;;;;;;23.50;89.30;;;;;;5093851;28;19943;-9
2022/10/16 10:34:00;;;;;;;;;;;23.40;90.00;;;;;;5093115;28;20297;-11
2022/10/16 10:36:34;;;;;;;;;;;23.40;90.30;;;;;;5091395;28;20317;-11
2022/10/16 10:39:15;;;;;;;;;;;23.30;90.50;;;;;;5089069;28;20204;-11
2022/10/16 10:41:56;;;;;;;;;;;23.30;90.90;;;;;;5089514;28;19935;-9
2022/10/16 10:44:42;;;;;;;;;;;23.20;91.00;;;;;;5088072;28;20015;-11
2022/10/16 10:47:26;;;;;;;;;;;23.10;91.30;;;;;;5075312;28;19943;-9
2022/10/16 10:49:55;;;;;;;;;;;23.10;91.60;;;;;;5087221;28;19908;-9
2022/10/16 10:52:34;;;;;;;;;;;23.10;91.80;;;;;;5089624;28;19908;-11
2022/10/16 10:54:59;;;;;;;;;;;23.00;91.90;;;;;;5088609;28;19908;-11
2022/10/16 10:57:28;;;;;;;;;;;23.00;92.00;;;;;;5090926;28;20141;-9
2022/10/16 10:59:56;;;;;;;;;;;23.00;92.10;;;;;;5090692;28;20012;-12
2022/10/16 11:02:25;;;;;;;;;;;23.00;92.30;;;;;;5091678;28;19915;-9
2022/10/16 11:04:58;;;;;;;;;;;22.90;92.40;;;;;;5090966;28;19941;-9
2022/10/16 11:07:26;;;;;;;;;;;22.90;92.60;;;;;;5089665;28;19919;-9
2022/10/16 11:09:55;;;;;;;;;;;22.90;92.70;;;;;;5091488;28;20011;-10
2022/10/16 11:12:36;;;;;;;;;;;22.80;92.80;;;;;;5092261;28;19978;-10
2022/10/16 11:15:11;;;;;;;;;;;22.80;92.90;;;;;;5091257;28;19912;-10
2022/10/16 11:17:55;;;;;;;;;;;22.80;93.00;;;;;;5091767;28;19909;-11
2022/10/16 11:20:24;;;;;;;;;;;22.80;93.00;;;;;;5089352;28;19912;-10
2022/10/16 11:22:56;;;;;;;;;;;22.80;93.20;;;;;;5091013;28;20346;-11
2022/10/16 11:25:29;;;;;;;;;;;22.70;93.30;;;;;;5087319;28;20103;-10
2022/10/16 11:28:03;;;;;;;;;;;22.70;93.40;;;;;;5090116;28;20246;-11
2022/10/16 11:30:31;;;;;;;;;;;22.70;93.50;;;;;;5089119;28;19912;-9
2022/10/16 11:32:56;;;;;;;;;;;22.70;93.60;;;;;;5089319;28;19916;-10
2022/10/16 11:35:38;;;;;;;;;;;22.60;93.70;;;;;;5088644;28;19935;-9
2022/10/16 11:38:09;;;;;;;;;;;22.60;93.80;;;;;;5096823;28;19933;-9
2022/10/16 11:40:40;;;;;;;;;;;22.60;93.90;;;;;;5095784;28;19908;-9
2022/10/16 11:43:13;;;;;;;;;;;22.50;94.00;;;;;;5096365;28;19947;-10
2022/10/16 11:46:12;;;;;;;;;;;22.60;94.10;;;;;;5096218;28;19939;-11
2022/10/16 11:48:49;;;;;;;;;;;22.50;94.10;;;;;;5083417;28;19919;-10
2022/10/16 11:51:21;;;;;;;;;;;22.50;94.30;;;;;;5087266;28;19912;-10
2022/10/16 11:53:52;;;;;;;;;;;22.50;94.40;;;;;;5087198;28;20036;-9
2022/10/16 11:56:19;;;;;;;;;;;22.40;94.40;;;;;;5087043;28;20246;-10
2022/10/16 11:58:51;;;;;;;;;;;22.40;94.50;;;;;;5090477;28;20143;-10
2022/10/16 12:01:20;;;;;;;;;;;22.40;94.50;;;;;;5089098;28;19918;-11
2022/10/16 12:04:00;;;;;;;;;;;22.40;94.60;;;;;;5087192;28;19916;-9
2022/10/16 12:06:31;;;;;;;;;;;22.40;94.60;;;;;;5088597;28;20068;-11
2022/10/16 12:08:59;;;;;;;;;;;22.40;94.70;;;;;;5088145;28;20034;-11
2022/10/16 12:11:27;;;;;;;;;;;22.40;94.70;;;;;;5088838;28;19920;-10
2022/10/16 12:14:11;;;;;;;;;;;22.40;94.80;;;;;;5087280;28;20216;-10
2022/10/16 12:16:37;;;;;;;;;;;22.40;94.90;;;;;;5088461;28;19938;-11
2022/10/16 12:19:13;;;;;;;;;;;22.30;94.90;;;;;;5088704;28;19912;-9
2022/10/16 12:21:38;;;;;;;;;;;22.30;95.10;;;;;;5090140;28;19908;-11
2022/10/16 12:24:05;;;;;;;;;;;22.30;95.10;;;;;;5088916;28;20102;-10
2022/10/16 12:26:37;;;;;;;;;;;22.40;95.10;;;;;;5087740;28;20067;-10
2022/10/16 12:29:13;;;;;;;;;;;22.40;95.10;;;;;;5088190;28;19920;-10
2022/10/16 12:31:42;;;;;;;;;;;22.30;95.10;;;;;;5087315;28;19908;-11
2022/10/16 12:34:20;;;;;;;;;;;22.30;95.20;;;;;;5089760;28;20352;-10
2022/10/16 12:36:45;;;;;;;;;;;22.30;95.30;;;;;;5089562;28;19908;-9
2022/10/16 12:39:19;;;;;;;;;;;22.30;95.30;;;;;;5090415;28;19912;-10
2022/10/16 12:41:45;;;;;;;;;;;22.30;95.30;;;;;;5090119;28;19908;-10
2022/10/16 12:44:31;;;;;;;;;;;22.30;95.40;;;;;;5090300;28;19912;-11
2022/10/16 12:46:56;;;;;;;;;;;22.30;95.40;;;;;;5089625;28;20151;-9
2022/10/16 12:49:30;;;;;;;;;;;22.30;95.50;;;;;;5089723;28;20295;-9
2022/10/16 12:51:55;;;;;;;;;;;22.30;95.60;;;;;;5089164;28;19916;-9
2022/10/16 12:54:41;;;;;;;;;;;22.20;95.60;;;;;;5091138;28;19908;-10
2022/10/16 12:57:19;;;;;;;;;;;22.20;95.80;;;;;;5088726;28;19974;-9
2022/10/16 12:59:51;;;;;;;;;;;22.20;95.80;;;;;;5088395;28;19912;-11
2022/10/16 13:02:22;;;;;;;;;;;22.20;96.00;;;;;;5088224;28;19993;-10
2022/10/16 13:04:57;;;;;;;;;;;22.20;96.00;;;;;;5087511;28;20337;-10
2022/10/16 13:07:26;;;;;;;;;;;22.20;96.00;;;;;;5085930;28;19912;-10
2022/10/16 13:10:06;;;;;;;;;;;22.20;96.00;;;;;;5087614;28;20170;-9
2022/10/16 13:12:32;;;;;;;;;;;22.20;96.00;;;;;;5087126;28;19908;-9
2022/10/16 13:15:08;;;;;;;;;;;22.20;96.00;;;;;;5086242;28;19918;-9
2022/10/16 13:17:48;;;;;;;;;;;22.20;96.00;;;;;;5086074;28;19973;-9
2022/10/16 13:20:14;;;;;;;;;;;22.20;96.00;;;;;;5087265;28;19955;-11
2022/10/16 13:22:39;;;;;;;;;;;22.20;96.00;;;;;;5086091;28;19955;-9
2022/10/16 13:25:18;;;;;;;;;;;22.20;96.10;;;;;;5088421;28;19908;-12
2022/10/16 13:27:59;;;;;;;;;;;22.20;96.10;;;;;;5087186;28;20184;-10
2022/10/16 13:30:26;;;;;;;;;;;22.20;96.20;;;;;;5087940;28;20013;-10
2022/10/16 13:32:57;;;;;;;;;;;22.10;96.30;;;;;;5087304;28;19916;-11
2022/10/16 13:35:25;;;;;;;;;;;22.10;96.40;;;;;;5086513;28;19930;-10
2022/10/16 13:37:51;;;;;;;;;;;22.00;96.50;;;;;;5088144;28;19973;-9
2022/10/16 13:40:22;;;;;;;;;;;22.00;96.50;;;;;;5088391;28;19963;-10
2022/10/16 13:42:48;;;;;;;;;;;22.00;96.60;;;;;;5086773;28;19919;-9
2022/10/16 13:45:17;;;;;;;;;;;22.10;96.60;;;;;;5086884;28;19908;-9
2022/10/16 13:47:42;;;;;;;;;;;22.10;96.60;;;;;;5087322;28;19951;-10
2022/10/16 13:50:13;;;;;;;;;;;22.10;96.60;;;;;;5089131;28;20531;-9
2022/10/16 13:52:39;;;;;;;;;;;22.00;96.70;;;;;;5090756;28;19987;-11
2022/10/16 13:55:12;;;;;;;;;;;22.00;96.70;;;;;;5090961;28;19975;-10
2022/10/16 13:57:37;;;;;;;;;;;22.00;96.80;;;;;;5090601;28;19908;-9
2022/10/16 14:00:16;;;;;;;;;;;22.00;96.90;;;;;;5091189;28;19973;-10
2022/10/16 14:02:42;;;;;;;;;;;21.90;96.90;;;;;;5090006;28;19938;-10
2022/10/16 14:05:09;;;;;;;;;;;21.90;97.00;;;;;;5089250;28;19908;-10
2022/10/16 14:07:35;;;;;;;;;;;21.90;97.20;;;;;;5090666;28;20250;-12
2022/10/16 14:10:05;;;;;;;;;;;21.90;97.20;;;;;;5090773;28;20277;-10
2022/10/16 14:12:31;;;;;;;;;;;21.90;97.30;;;;;;5086956;28;19908;-10
2022/10/16 14:14:58;;;;;;;;;;;21.90;97.30;;;;;;5084786;28;19916;-10
2022/10/16 14:17:28;;;;;;;;;;;21.90;97.30;;;;;;5087269;28;20158;-10
2022/10/16 14:19:55;;;;;;;;;;;21.90;97.40;;;;;;5086730;28;19912;-10
2022/10/16 14:22:27;;;;;;;;;;;21.90;97.40;;;;;;5087911;28;20174;-8
2022/10/16 14:24:52;;;;;;;;;;;21.90;97.40;;;;;;5088124;28;19908;-10
2022/10/16 14:27:35;;;;;;;;;;;21.90;97.40;;;;;;5088810;28;20018;-9